sensor_id;sensor_type;location;lat;lon;timestamp;pressure;altitude;pressure_sealevel;temperature;humidity
75551;BME280;65071;53.082;18.218;2023-08-07T00:01:33;99483.25;;;14.57;87.86
75551;BME280;65071;53.082;18.218;2023-08-07T00:04:00;99486.14;;;14.55;87.72
75551;BME280;65071;53.082;18.218;2023-08-07T00:06:26;99495.15;;;14.54;87.60
75551;BME280;65071;53.082;18.218;2023-08-07T00:08:53;99498.37;;;14.53;87.60
75551;BME280;65071;53.082;18.218;2023-08-07T00:11:19;99504.77;;;14.52;87.58
75551;BME280;65071;53.082;18.218;2023-08-07T00:13:46;99505.39;;;14.53;87.77
75551;BME280;65071;53.082;18.218;2023-08-07T00:16:12;99503.39;;;14.51;87.55
75551;BME280;65071;53.082;18.218;2023-08-07T00:18:39;99496.79;;;14.49;87.44
75551;BME280;65071;53.082;18.218;2023-08-07T00:21:05;99502.39;;;14.47;87.33
75551;BME280;65071;53.082;18.218;2023-08-07T00:23:32;99501.50;;;14.46;87.50
75551;BME280;65071;53.082;18.218;2023-08-07T00:25:59;99505.13;;;14.45;87.60
75551;BME280;65071;53.082;18.218;2023-08-07T00:28:25;99498.27;;;14.44;87.46
75551;BME280;65071;53.082;18.218;2023-08-07T00:30:52;99499.36;;;14.41;87.70
75551;BME280;65071;53.082;18.218;2023-08-07T00:33:18;99497.04;;;14.41;87.64
75551;BME280;65071;53.082;18.218;2023-08-07T00:35:45;99489.77;;;14.39;87.60
75551;BME280;65071;53.082;18.218;2023-08-07T00:38:12;99490.27;;;14.39;87.35
75551;BME280;65071;53.082;18.218;2023-08-07T00:40:39;99486.88;;;14.39;87.28
75551;BME280;65071;53.082;18.218;2023-08-07T00:43:06;99485.17;;;14.38;87.03
75551;BME280;65071;53.082;18.218;2023-08-07T00:45:36;99482.84;;;14.35;87.07
75551;BME280;65071;53.082;18.218;2023-08-07T00:48:04;99492.70;;;14.36;87.17
75551;BME280;65071;53.082;18.218;2023-08-07T00:50:32;99483.25;;;14.35;87.35
75551;BME280;65071;53.082;18.218;2023-08-07T00:52:59;99479.91;;;14.35;87.10
75551;BME280;65071;53.082;18.218;2023-08-07T00:55:26;99474.41;;;14.33;87.08
75551;BME280;65071;53.082;18.218;2023-08-07T00:57:53;99479.12;;;14.34;87.01
75551;BME280;65071;53.082;18.218;2023-08-07T01:00:20;99481.42;;;14.34;87.31
75551;BME280;65071;53.082;18.218;2023-08-07T01:02:47;99483.63;;;14.35;87.23
75551;BME280;65071;53.082;18.218;2023-08-07T01:05:17;99478.25;;;14.36;87.40
75551;BME280;65071;53.082;18.218;2023-08-07T01:07:47;99468.27;;;14.37;87.53
75551;BME280;65071;53.082;18.218;2023-08-07T01:10:14;99471.16;;;14.38;87.53
75551;BME280;65071;53.082;18.218;2023-08-07T01:13:00;99468.39;;;14.39;87.00
75551;BME280;65071;53.082;18.218;2023-08-07T01:15:30;99473.52;;;14.37;86.89
75551;BME280;65071;53.082;18.218;2023-08-07T01:17:59;99477.29;;;14.35;87.16
75551;BME280;65071;53.082;18.218;2023-08-07T01:20:27;99476.45;;;14.34;87.19
75551;BME280;65071;53.082;18.218;2023-08-07T01:22:54;99482.98;;;14.33;87.01
75551;BME280;65071;53.082;18.218;2023-08-07T01:25:21;99479.33;;;14.32;86.98
75551;BME280;65071;53.082;18.218;2023-08-07T01:28:12;99479.49;;;14.32;86.89
75551;BME280;65071;53.082;18.218;2023-08-07T01:30:46;99487.77;;;14.31;87.31
75551;BME280;65071;53.082;18.218;2023-08-07T01:33:24;99487.21;;;14.31;87.23
75551;BME280;65071;53.082;18.218;2023-08-07T01:35:55;99482.09;;;14.31;87.35
75551;BME280;65071;53.082;18.218;2023-08-07T01:38:24;99484.70;;;14.32;87.70
75551;BME280;65071;53.082;18.218;2023-08-07T01:40:52;99478.08;;;14.33;87.25
75551;BME280;65071;53.082;18.218;2023-08-07T01:43:20;99477.58;;;14.33;87.47
75551;BME280;65071;53.082;18.218;2023-08-07T01:45:47;99474.02;;;14.32;87.51
75551;BME280;65071;53.082;18.218;2023-08-07T01:48:13;99467.34;;;14.31;87.44
75551;BME280;65071;53.082;18.218;2023-08-07T01:50:40;99465.77;;;14.28;87.31
75551;BME280;65071;53.082;18.218;2023-08-07T01:53:06;99476.46;;;14.26;87.51
75551;BME280;65071;53.082;18.218;2023-08-07T01:55:33;99476.90;;;14.25;87.24
75551;BME280;65071;53.082;18.218;2023-08-07T01:57:59;99472.83;;;14.25;87.36
75551;BME280;65071;53.082;18.218;2023-08-07T02:00:26;99470.54;;;14.25;87.18
75551;BME280;65071;53.082;18.218;2023-08-07T02:02:53;99472.08;;;14.27;87.14
75551;BME280;65071;53.082;18.218;2023-08-07T02:05:19;99472.16;;;14.27;87.46
75551;BME280;65071;53.082;18.218;2023-08-07T02:07:46;99470.98;;;14.26;87.43
75551;BME280;65071;53.082;18.218;2023-08-07T02:10:13;99475.27;;;14.25;87.15
75551;BME280;65071;53.082;18.218;2023-08-07T02:12:39;99478.04;;;14.25;87.42
75551;BME280;65071;53.082;18.218;2023-08-07T02:15:06;99475.50;;;14.26;87.39
75551;BME280;65071;53.082;18.218;2023-08-07T02:17:33;99473.03;;;14.27;87.40
75551;BME280;65071;53.082;18.218;2023-08-07T02:20:00;99473.88;;;14.26;87.26
75551;BME280;65071;53.082;18.218;2023-08-07T02:22:26;99468.61;;;14.27;87.29
75551;BME280;65071;53.082;18.218;2023-08-07T02:24:53;99463.98;;;14.27;87.16
75551;BME280;65071;53.082;18.218;2023-08-07T02:27:19;99462.94;;;14.29;87.14
75551;BME280;65071;53.082;18.218;2023-08-07T02:29:47;99462.08;;;14.28;87.07
75551;BME280;65071;53.082;18.218;2023-08-07T02:32:13;99455.44;;;14.29;87.20
75551;BME280;65071;53.082;18.218;2023-08-07T02:34:40;99454.49;;;14.29;87.06
75551;BME280;65071;53.082;18.218;2023-08-07T02:37:07;99452.88;;;14.28;86.96
75551;BME280;65071;53.082;18.218;2023-08-07T02:39:33;99451.83;;;14.28;86.87
75551;BME280;65071;53.082;18.218;2023-08-07T02:42:00;99452.50;;;14.28;86.90
75551;BME280;65071;53.082;18.218;2023-08-07T02:44:27;99451.04;;;14.27;87.00
75551;BME280;65071;53.082;18.218;2023-08-07T02:46:53;99453.55;;;14.27;86.77
75551;BME280;65071;53.082;18.218;2023-08-07T02:49:20;99458.25;;;14.26;86.77
75551;BME280;65071;53.082;18.218;2023-08-07T02:51:46;99455.70;;;14.24;86.68
75551;BME280;65071;53.082;18.218;2023-08-07T02:54:13;99451.45;;;14.23;86.71
75551;BME280;65071;53.082;18.218;2023-08-07T02:56:40;99459.21;;;14.21;86.68
75551;BME280;65071;53.082;18.218;2023-08-07T02:59:07;99464.94;;;14.22;86.82
75551;BME280;65071;53.082;18.218;2023-08-07T03:01:34;99463.21;;;14.21;87.00
75551;BME280;65071;53.082;18.218;2023-08-07T03:04:00;99463.85;;;14.20;86.99
75551;BME280;65071;53.082;18.218;2023-08-07T03:06:27;99467.95;;;14.20;86.89
75551;BME280;65071;53.082;18.218;2023-08-07T03:08:54;99473.33;;;14.20;86.88
75551;BME280;65071;53.082;18.218;2023-08-07T03:11:20;99478.33;;;14.20;86.64
75551;BME280;65071;53.082;18.218;2023-08-07T03:13:47;99475.95;;;14.18;86.45
75551;BME280;65071;53.082;18.218;2023-08-07T03:16:15;99478.36;;;14.19;86.58
75551;BME280;65071;53.082;18.218;2023-08-07T03:18:42;99483.00;;;14.21;86.57
75551;BME280;65071;53.082;18.218;2023-08-07T03:21:09;99490.17;;;14.21;86.62
75551;BME280;65071;53.082;18.218;2023-08-07T03:23:35;99494.07;;;14.23;86.58
75551;BME280;65071;53.082;18.218;2023-08-07T03:26:05;99496.69;;;14.24;86.55
75551;BME280;65071;53.082;18.218;2023-08-07T03:28:32;99498.95;;;14.24;86.45
75551;BME280;65071;53.082;18.218;2023-08-07T03:30:59;99500.95;;;14.25;86.27
75551;BME280;65071;53.082;18.218;2023-08-07T03:33:27;99500.67;;;14.26;86.23
75551;BME280;65071;53.082;18.218;2023-08-07T03:35:54;99502.17;;;14.26;86.18
75551;BME280;65071;53.082;18.218;2023-08-07T03:38:21;99501.12;;;14.27;86.23
75551;BME280;65071;53.082;18.218;2023-08-07T03:40:48;99502.45;;;14.28;86.24
75551;BME280;65071;53.082;18.218;2023-08-07T03:43:14;99502.96;;;14.27;85.78
75551;BME280;65071;53.082;18.218;2023-08-07T03:45:41;99499.20;;;14.26;85.92
75551;BME280;65071;53.082;18.218;2023-08-07T03:48:08;99495.66;;;14.27;85.98
75551;BME280;65071;53.082;18.218;2023-08-07T03:50:35;99497.74;;;14.28;85.91
75551;BME280;65071;53.082;18.218;2023-08-07T03:53:04;99497.87;;;14.28;85.90
75551;BME280;65071;53.082;18.218;2023-08-07T03:55:34;99499.23;;;14.29;85.90
75551;BME280;65071;53.082;18.218;2023-08-07T03:58:02;99501.20;;;14.30;85.86
75551;BME280;65071;53.082;18.218;2023-08-07T04:00:29;99507.92;;;14.32;85.61
75551;BME280;65071;53.082;18.218;2023-08-07T04:02:56;99514.14;;;14.31;85.44
75551;BME280;65071;53.082;18.218;2023-08-07T04:05:23;99514.55;;;14.29;85.34
75551;BME280;65071;53.082;18.218;2023-08-07T04:07:49;99518.40;;;14.29;85.43
75551;BME280;65071;53.082;18.218;2023-08-07T04:10:16;99514.90;;;14.31;85.46
75551;BME280;65071;53.082;18.218;2023-08-07T04:12:43;99517.23;;;14.32;85.61
75551;BME280;65071;53.082;18.218;2023-08-07T04:15:10;99525.66;;;14.34;85.77
75551;BME280;65071;53.082;18.218;2023-08-07T04:17:36;99534.13;;;14.34;85.55
75551;BME280;65071;53.082;18.218;2023-08-07T04:20:04;99537.23;;;14.34;85.76
75551;BME280;65071;53.082;18.218;2023-08-07T04:22:30;99536.44;;;14.35;85.86
75551;BME280;65071;53.082;18.218;2023-08-07T04:24:57;99529.77;;;14.37;85.69
75551;BME280;65071;53.082;18.218;2023-08-07T04:27:23;99526.02;;;14.38;85.47
75551;BME280;65071;53.082;18.218;2023-08-07T04:29:50;99519.20;;;14.38;85.45
75551;BME280;65071;53.082;18.218;2023-08-07T04:32:17;99524.63;;;14.35;85.25
75551;BME280;65071;53.082;18.218;2023-08-07T04:34:43;99534.22;;;14.34;85.45
75551;BME280;65071;53.082;18.218;2023-08-07T04:37:10;99543.11;;;14.33;85.59
75551;BME280;65071;53.082;18.218;2023-08-07T04:39:36;99542.20;;;14.34;85.84
75551;BME280;65071;53.082;18.218;2023-08-07T04:42:03;99542.90;;;14.32;85.61
75551;BME280;65071;53.082;18.218;2023-08-07T04:44:30;99546.81;;;14.30;85.98
75551;BME280;65071;53.082;18.218;2023-08-07T04:46:57;99550.35;;;14.28;86.07
75551;BME280;65071;53.082;18.218;2023-08-07T04:49:23;99549.98;;;14.24;86.14
75551;BME280;65071;53.082;18.218;2023-08-07T04:51:50;99552.11;;;14.22;86.08
75551;BME280;65071;53.082;18.218;2023-08-07T04:54:17;99552.87;;;14.20;86.37
75551;BME280;65071;53.082;18.218;2023-08-07T04:56:43;99560.60;;;14.23;86.50
75551;BME280;65071;53.082;18.218;2023-08-07T04:59:11;99561.69;;;14.25;86.19
75551;BME280;65071;53.082;18.218;2023-08-07T05:01:38;99566.58;;;14.27;85.93
75551;BME280;65071;53.082;18.218;2023-08-07T05:04:05;99567.66;;;14.26;86.04
75551;BME280;65071;53.082;18.218;2023-08-07T05:06:32;99569.95;;;14.25;85.95
75551;BME280;65071;53.082;18.218;2023-08-07T05:08:58;99576.75;;;14.24;85.87
75551;BME280;65071;53.082;18.218;2023-08-07T05:11:25;99579.71;;;14.24;85.97
75551;BME280;65071;53.082;18.218;2023-08-07T05:13:52;99576.49;;;14.25;86.05
75551;BME280;65071;53.082;18.218;2023-08-07T05:16:18;99580.80;;;14.26;86.08
75551;BME280;65071;53.082;18.218;2023-08-07T05:18:45;99580.02;;;14.28;86.11
75551;BME280;65071;53.082;18.218;2023-08-07T05:21:14;99579.79;;;14.30;86.02
75551;BME280;65071;53.082;18.218;2023-08-07T05:23:41;99583.33;;;14.28;85.88
75551;BME280;65071;53.082;18.218;2023-08-07T05:26:07;99585.44;;;14.27;85.87
75551;BME280;65071;53.082;18.218;2023-08-07T05:28:34;99592.70;;;14.26;85.86
75551;BME280;65071;53.082;18.218;2023-08-07T05:31:00;99593.78;;;14.26;86.28
75551;BME280;65071;53.082;18.218;2023-08-07T05:33:27;99601.41;;;14.31;86.40
75551;BME280;65071;53.082;18.218;2023-08-07T05:35:53;99603.15;;;14.35;85.99
75551;BME280;65071;53.082;18.218;2023-08-07T05:38:21;99602.57;;;14.38;86.41
75551;BME280;65071;53.082;18.218;2023-08-07T05:40:48;99601.52;;;14.46;86.00
75551;BME280;65071;53.082;18.218;2023-08-07T05:43:17;99600.67;;;14.50;86.14
75551;BME280;65071;53.082;18.218;2023-08-07T05:45:43;99605.55;;;14.53;86.03
75551;BME280;65071;53.082;18.218;2023-08-07T05:48:12;99609.50;;;14.58;85.65
75551;BME280;65071;53.082;18.218;2023-08-07T05:50:39;99603.45;;;14.61;85.98
75551;BME280;65071;53.082;18.218;2023-08-07T05:53:05;99604.62;;;14.63;85.93
75551;BME280;65071;53.082;18.218;2023-08-07T05:55:33;99610.44;;;14.68;85.85
75551;BME280;65071;53.082;18.218;2023-08-07T05:57:59;99612.89;;;14.67;85.50
75551;BME280;65071;53.082;18.218;2023-08-07T06:00:26;99619.73;;;14.66;85.66
75551;BME280;65071;53.082;18.218;2023-08-07T06:02:54;99619.41;;;14.67;85.31
75551;BME280;65071;53.082;18.218;2023-08-07T06:05:21;99624.88;;;14.67;85.55
75551;BME280;65071;53.082;18.218;2023-08-07T06:07:48;99627.52;;;14.66;85.19
75551;BME280;65071;53.082;18.218;2023-08-07T06:10:14;99628.55;;;14.63;84.94
75551;BME280;65071;53.082;18.218;2023-08-07T06:12:41;99631.92;;;14.61;85.30
75551;BME280;65071;53.082;18.218;2023-08-07T06:15:08;99631.31;;;14.61;85.29
75551;BME280;65071;53.082;18.218;2023-08-07T06:17:35;99633.52;;;14.62;85.51
75551;BME280;65071;53.082;18.218;2023-08-07T06:20:02;99631.73;;;14.62;85.34
75551;BME280;65071;53.082;18.218;2023-08-07T06:22:31;99630.27;;;14.62;85.41
75551;BME280;65071;53.082;18.218;2023-08-07T06:24:59;99639.33;;;14.65;85.83
75551;BME280;65071;53.082;18.218;2023-08-07T06:27:25;99638.24;;;14.70;85.65
75551;BME280;65071;53.082;18.218;2023-08-07T06:29:52;99632.70;;;14.76;85.57
75551;BME280;65071;53.082;18.218;2023-08-07T06:32:18;99631.92;;;14.80;85.32
75551;BME280;65071;53.082;18.218;2023-08-07T06:34:45;99632.59;;;14.86;84.86
75551;BME280;65071;53.082;18.218;2023-08-07T06:37:13;99631.88;;;14.90;84.73
75551;BME280;65071;53.082;18.218;2023-08-07T06:39:39;99627.88;;;14.98;84.65
75551;BME280;65071;53.082;18.218;2023-08-07T06:42:06;99630.17;;;15.06;84.45
75551;BME280;65071;53.082;18.218;2023-08-07T06:44:33;99628.49;;;15.15;84.13
75551;BME280;65071;53.082;18.218;2023-08-07T06:47:00;99629.71;;;15.25;84.22
75551;BME280;65071;53.082;18.218;2023-08-07T06:49:26;99633.16;;;15.37;84.04
75551;BME280;65071;53.082;18.218;2023-08-07T06:51:53;99633.55;;;15.44;82.98
75551;BME280;65071;53.082;18.218;2023-08-07T06:54:19;99641.11;;;15.54;83.12
75551;BME280;65071;53.082;18.218;2023-08-07T06:56:46;99638.41;;;15.60;82.05
75551;BME280;65071;53.082;18.218;2023-08-07T06:59:13;99641.54;;;15.69;81.75
75551;BME280;65071;53.082;18.218;2023-08-07T07:01:39;99643.27;;;15.84;80.70
75551;BME280;65071;53.082;18.218;2023-08-07T07:04:06;99645.73;;;15.91;79.69
75551;BME280;65071;53.082;18.218;2023-08-07T07:06:33;99645.86;;;15.95;79.60
75551;BME280;65071;53.082;18.218;2023-08-07T07:08:59;99652.96;;;15.99;79.81
75551;BME280;65071;53.082;18.218;2023-08-07T07:11:26;99657.48;;;16.00;79.70
75551;BME280;65071;53.082;18.218;2023-08-07T07:13:52;99659.10;;;16.03;79.30
75551;BME280;65071;53.082;18.218;2023-08-07T07:16:19;99657.34;;;16.05;78.98
75551;BME280;65071;53.082;18.218;2023-08-07T07:18:49;99670.17;;;16.09;79.32
75551;BME280;65071;53.082;18.218;2023-08-07T07:21:16;99669.39;;;16.18;78.55
75551;BME280;65071;53.082;18.218;2023-08-07T07:23:43;99670.86;;;16.25;78.47
75551;BME280;65071;53.082;18.218;2023-08-07T07:26:10;99678.30;;;16.31;78.42
75551;BME280;65071;53.082;18.218;2023-08-07T07:28:36;99675.04;;;16.45;78.73
75551;BME280;65071;53.082;18.218;2023-08-07T07:31:03;99675.86;;;16.57;78.99
75551;BME280;65071;53.082;18.218;2023-08-07T07:33:31;99669.73;;;16.70;77.95
75551;BME280;65071;53.082;18.218;2023-08-07T07:35:57;99672.73;;;16.86;78.06
75551;BME280;65071;53.082;18.218;2023-08-07T07:38:24;99679.16;;;17.08;77.77
75551;BME280;65071;53.082;18.218;2023-08-07T07:40:52;99687.23;;;17.37;77.20
75551;BME280;65071;53.082;18.218;2023-08-07T07:43:23;99691.23;;;17.52;74.81
75551;BME280;65071;53.082;18.218;2023-08-07T07:45:49;99691.46;;;17.70;74.43
75551;BME280;65071;53.082;18.218;2023-08-07T07:48:16;99693.46;;;17.75;73.25
75551;BME280;65071;53.082;18.218;2023-08-07T07:50:43;99695.71;;;17.82;72.95
75551;BME280;65071;53.082;18.218;2023-08-07T07:53:09;99691.71;;;17.79;72.90
75551;BME280;65071;53.082;18.218;2023-08-07T07:55:36;99695.31;;;17.87;73.88
75551;BME280;65071;53.082;18.218;2023-08-07T07:58:04;99698.02;;;17.90;72.32
75551;BME280;65071;53.082;18.218;2023-08-07T08:00:30;99698.13;;;17.84;72.08
75551;BME280;65071;53.082;18.218;2023-08-07T08:02:57;99697.79;;;17.84;72.17
75551;BME280;65071;53.082;18.218;2023-08-07T08:05:24;99705.77;;;17.91;72.23
75551;BME280;65071;53.082;18.218;2023-08-07T08:07:50;99697.65;;;17.97;70.32
75551;BME280;65071;53.082;18.218;2023-08-07T08:10:17;99702.37;;;17.99;70.25
75551;BME280;65071;53.082;18.218;2023-08-07T08:12:43;99699.29;;;18.15;69.98
75551;BME280;65071;53.082;18.218;2023-08-07T08:15:10;99697.36;;;18.30;69.15
75551;BME280;65071;53.082;18.218;2023-08-07T08:17:36;99694.42;;;18.39;68.15
75551;BME280;65071;53.082;18.218;2023-08-07T08:20:03;99700.69;;;18.48;67.45
75551;BME280;65071;53.082;18.218;2023-08-07T08:22:30;99702.06;;;18.62;67.12
75551;BME280;65071;53.082;18.218;2023-08-07T08:24:57;99707.90;;;18.74;67.21
75551;BME280;65071;53.082;18.218;2023-08-07T08:27:23;99710.48;;;18.89;67.13
75551;BME280;65071;53.082;18.218;2023-08-07T08:29:51;99718.02;;;19.11;65.16
75551;BME280;65071;53.082;18.218;2023-08-07T08:32:18;99714.46;;;19.26;63.42
75551;BME280;65071;53.082;18.218;2023-08-07T08:34:44;99716.25;;;19.33;62.17
75551;BME280;65071;53.082;18.218;2023-08-07T08:37:12;99723.28;;;19.36;61.49
75551;BME280;65071;53.082;18.218;2023-08-07T08:39:38;99718.96;;;19.32;60.69
75551;BME280;65071;53.082;18.218;2023-08-07T08:42:05;99719.60;;;19.34;59.93
75551;BME280;65071;53.082;18.218;2023-08-07T08:44:35;99731.80;;;19.48;60.02
75551;BME280;65071;53.082;18.218;2023-08-07T08:47:04;99731.48;;;19.60;60.33
75551;BME280;65071;53.082;18.218;2023-08-07T08:49:33;99732.27;;;19.69;59.85
75551;BME280;65071;53.082;18.218;2023-08-07T08:52:02;99738.02;;;19.69;59.05
75551;BME280;65071;53.082;18.218;2023-08-07T08:54:30;99738.42;;;19.75;59.49
75551;BME280;65071;53.082;18.218;2023-08-07T08:56:57;99730.67;;;19.76;58.21
75551;BME280;65071;53.082;18.218;2023-08-07T08:59:25;99735.15;;;19.70;57.82
75551;BME280;65071;53.082;18.218;2023-08-07T09:01:53;99739.29;;;19.72;57.25
75551;BME280;65071;53.082;18.218;2023-08-07T09:04:19;99736.72;;;19.88;57.75
75551;BME280;65071;53.082;18.218;2023-08-07T09:06:46;99731.01;;;20.01;56.72
75551;BME280;65071;53.082;18.218;2023-08-07T09:09:14;99731.98;;;20.03;57.37
75551;BME280;65071;53.082;18.218;2023-08-07T09:11:43;99731.80;;;20.13;57.30
75551;BME280;65071;53.082;18.218;2023-08-07T09:14:16;99743.58;;;20.25;56.78
75551;BME280;65071;53.082;18.218;2023-08-07T09:16:47;99741.42;;;20.34;56.19
75551;BME280;65071;53.082;18.218;2023-08-07T09:19:14;99749.80;;;20.30;56.42
75551;BME280;65071;53.082;18.218;2023-08-07T09:21:41;99752.46;;;20.35;56.93
75551;BME280;65071;53.082;18.218;2023-08-07T09:24:08;99749.31;;;20.37;56.15
75551;BME280;65071;53.082;18.218;2023-08-07T09:26:35;99745.08;;;20.31;56.98
75551;BME280;65071;53.082;18.218;2023-08-07T09:29:02;99742.98;;;20.35;57.02
75551;BME280;65071;53.082;18.218;2023-08-07T09:31:29;99742.83;;;20.48;56.16
75551;BME280;65071;53.082;18.218;2023-08-07T09:34:03;99735.73;;;20.64;56.11
75551;BME280;65071;53.082;18.218;2023-08-07T09:36:31;99739.02;;;20.72;56.08
75551;BME280;65071;53.082;18.218;2023-08-07T09:39:01;99735.61;;;20.70;55.38
75551;BME280;65071;53.082;18.218;2023-08-07T09:41:29;99738.86;;;20.89;55.58
75551;BME280;65071;53.082;18.218;2023-08-07T09:43:57;99736.20;;;20.91;55.46
75551;BME280;65071;53.082;18.218;2023-08-07T09:46:25;99731.11;;;21.00;55.03
75551;BME280;65071;53.082;18.218;2023-08-07T09:48:52;99733.48;;;20.94;55.26
75551;BME280;65071;53.082;18.218;2023-08-07T09:51:18;99740.80;;;20.83;55.04
75551;BME280;65071;53.082;18.218;2023-08-07T09:53:46;99730.33;;;20.85;54.16
75551;BME280;65071;53.082;18.218;2023-08-07T09:56:13;99725.98;;;20.98;54.42
75551;BME280;65071;53.082;18.218;2023-08-07T09:58:46;99714.60;;;20.97;52.55
75551;BME280;65071;53.082;18.218;2023-08-07T10:01:15;99725.59;;;20.90;53.43
75551;BME280;65071;53.082;18.218;2023-08-07T10:03:42;99723.52;;;20.93;53.57
75551;BME280;65071;53.082;18.218;2023-08-07T10:06:09;99720.71;;;20.95;53.97
75551;BME280;65071;53.082;18.218;2023-08-07T10:08:37;99725.50;;;20.96;54.78
75551;BME280;65071;53.082;18.218;2023-08-07T10:11:05;99718.84;;;20.99;54.86
75551;BME280;65071;53.082;18.218;2023-08-07T10:13:32;99715.36;;;20.89;54.36
75551;BME280;65071;53.082;18.218;2023-08-07T10:15:59;99726.81;;;20.63;54.26
75551;BME280;65071;53.082;18.218;2023-08-07T10:18:26;99737.38;;;20.37;54.29
75551;BME280;65071;53.082;18.218;2023-08-07T10:20:53;99747.52;;;20.18;55.69
75551;BME280;65071;53.082;18.218;2023-08-07T10:23:20;99759.94;;;19.99;57.29
75551;BME280;65071;53.082;18.218;2023-08-07T10:25:48;99771.20;;;19.83;58.21
75551;BME280;65071;53.082;18.218;2023-08-07T10:28:17;99772.02;;;19.58;59.04
75551;BME280;65071;53.082;18.218;2023-08-07T10:30:44;99783.39;;;19.36;59.48
75551;BME280;65071;53.082;18.218;2023-08-07T10:33:12;99793.16;;;19.13;60.20
75551;BME280;65071;53.082;18.218;2023-08-07T10:35:45;99807.98;;;18.99;60.83
75551;BME280;65071;53.082;18.218;2023-08-07T10:38:14;99806.48;;;18.82;62.14
75551;BME280;65071;53.082;18.218;2023-08-07T10:43:27;99813.67;;;18.64;64.06
75551;BME280;65071;53.082;18.218;2023-08-07T10:46:02;99817.96;;;18.60;64.04
75551;BME280;65071;53.082;18.218;2023-08-07T10:48:29;99821.85;;;18.56;63.82
75551;BME280;65071;53.082;18.218;2023-08-07T10:51:03;99819.88;;;18.47;64.98
75551;BME280;65071;53.082;18.218;2023-08-07T10:53:33;99817.48;;;18.48;65.27
75551;BME280;65071;53.082;18.218;2023-08-07T10:56:05;99813.51;;;18.53;65.31
75551;BME280;65071;53.082;18.218;2023-08-07T10:58:38;99816.71;;;18.60;66.21
75551;BME280;65071;53.082;18.218;2023-08-07T11:01:21;99818.45;;;18.63;65.29
75551;BME280;65071;53.082;18.218;2023-08-07T11:03:49;99824.14;;;18.62;64.84
75551;BME280;65071;53.082;18.218;2023-08-07T11:06:17;99844.52;;;18.55;65.11
75551;BME280;65071;53.082;18.218;2023-08-07T11:08:44;99882.49;;;18.48;65.58
75551;BME280;65071;53.082;18.218;2023-08-07T11:11:11;99898.79;;;18.36;66.48
75551;BME280;65071;53.082;18.218;2023-08-07T11:13:37;99883.23;;;18.19;67.15
75551;BME280;65071;53.082;18.218;2023-08-07T11:16:04;99880.62;;;18.00;68.33
75551;BME280;65071;53.082;18.218;2023-08-07T11:18:31;99874.48;;;17.88;70.64
75551;BME280;65071;53.082;18.218;2023-08-07T11:20:58;99876.52;;;17.88;69.82
75551;BME280;65071;53.082;18.218;2023-08-07T11:23:25;99870.41;;;17.95;69.77
75551;BME280;65071;53.082;18.218;2023-08-07T11:25:54;99867.67;;;18.01;70.10
75551;BME280;65071;53.082;18.218;2023-08-07T11:28:21;99873.14;;;18.05;70.86
75551;BME280;65071;53.082;18.218;2023-08-07T11:30:50;99870.93;;;18.09;70.31
75551;BME280;65071;53.082;18.218;2023-08-07T11:33:20;99872.83;;;18.18;70.56
75551;BME280;65071;53.082;18.218;2023-08-07T11:35:48;99873.75;;;18.38;69.71
75551;BME280;65071;53.082;18.218;2023-08-07T11:38:37;99878.60;;;18.58;70.11
75551;BME280;65071;53.082;18.218;2023-08-07T11:41:06;99880.84;;;18.81;69.64
75551;BME280;65071;53.082;18.218;2023-08-07T11:43:34;99882.98;;;18.96;69.98
75551;BME280;65071;53.082;18.218;2023-08-07T11:46:03;99884.17;;;19.16;70.07
75551;BME280;65071;53.082;18.218;2023-08-07T11:48:32;99882.34;;;19.35;69.86
75551;BME280;65071;53.082;18.218;2023-08-07T11:50:59;99886.40;;;19.50;69.91
75551;BME280;65071;53.082;18.218;2023-08-07T11:53:33;99888.00;;;19.61;69.41
75551;BME280;65071;53.082;18.218;2023-08-07T11:56:02;99888.11;;;19.71;69.30
75551;BME280;65071;53.082;18.218;2023-08-07T11:58:44;99886.70;;;19.81;68.64
75551;BME280;65071;53.082;18.218;2023-08-07T12:01:20;99883.69;;;19.92;69.28
75551;BME280;65071;53.082;18.218;2023-08-07T12:06:32;99885.65;;;20.12;67.85
75551;BME280;65071;53.082;18.218;2023-08-07T12:09:00;99883.48;;;20.19;68.49
75551;BME280;65071;53.082;18.218;2023-08-07T12:11:28;99882.69;;;20.23;68.23
75551;BME280;65071;53.082;18.218;2023-08-07T12:13:55;99879.95;;;20.21;66.66
75551;BME280;65071;53.082;18.218;2023-08-07T12:16:22;99880.48;;;20.25;66.68
75551;BME280;65071;53.082;18.218;2023-08-07T12:18:51;99872.77;;;20.31;66.19
75551;BME280;65071;53.082;18.218;2023-08-07T12:21:21;99869.35;;;20.40;66.07
75551;BME280;65071;53.082;18.218;2023-08-07T12:23:50;99863.77;;;20.47;65.15
75551;BME280;65071;53.082;18.218;2023-08-07T12:26:17;99854.08;;;20.64;65.39
75551;BME280;65071;53.082;18.218;2023-08-07T12:28:44;99855.20;;;20.80;64.90
75551;BME280;65071;53.082;18.218;2023-08-07T12:31:10;99856.59;;;20.94;64.24
75551;BME280;65071;53.082;18.218;2023-08-07T12:33:37;99854.42;;;21.12;62.47
75551;BME280;65071;53.082;18.218;2023-08-07T12:36:03;99852.30;;;21.24;61.90
75551;BME280;65071;53.082;18.218;2023-08-07T12:38:30;99852.57;;;21.39;60.62
75551;BME280;65071;53.082;18.218;2023-08-07T12:40:57;99854.63;;;21.50;59.92
75551;BME280;65071;53.082;18.218;2023-08-07T12:43:25;99857.15;;;21.59;60.09
75551;BME280;65071;53.082;18.218;2023-08-07T12:45:52;99856.22;;;21.44;57.51
75551;BME280;65071;53.082;18.218;2023-08-07T12:48:19;99857.27;;;21.38;57.84
75551;BME280;65071;53.082;18.218;2023-08-07T12:50:46;99852.96;;;21.35;56.10
75551;BME280;65071;53.082;18.218;2023-08-07T12:53:12;99849.73;;;21.37;55.10
75551;BME280;65071;53.082;18.218;2023-08-07T12:55:39;99842.38;;;21.34;53.21
75551;BME280;65071;53.082;18.218;2023-08-07T12:58:06;99840.77;;;21.37;52.85